Station KMXA2 - Kodiak Matson Crane, AK Image indicating link to RSS feed of recent meteorological observations for station KMXA2


Conditions at KMXA2 as of
(11:34 pm AKDT on 05/21/2024)
0734 GMT on 05/22/2024:
     

Click on the graph icon in the table below to see a time series plot of the last five days of that observation.

5-day plot - Wind Direction Wind Direction (WDIR):SSW ( 210 deg true )
5-day plot - Wind Speed Wind Speed (WSPD): 5 kts
5-day plot - Wind Gust Wind Gust (GST): 13 kts
5-day plot - Air Temperature Air Temperature (ATMP): 45.3 °F
5-day plot - Dew Point Dew Point (DEWP): 39.6 °F
5-day plot - Wind Chill Wind Chill (CHILL): 42.3 °F
5-day plot - Wind Speed at 10 Meters Wind Speed at 10 meters (WSPD10M): 4 kts
5-day plot - Wind Speed at 20 Meters Wind Speed at 20 meters (WSPD20M): 4 kts
5-day plot -  Wind Speed, Wind Gust and Atmospheric Pressure Combined plot of Wind Speed, Gust, and Air Pressure
Previous observations
TIME
(AKDT)
5-day plot - Wind Direction
WDIR
 
5-day plot - Wind Speed
WSPD
kts
5-day plot - Wind Gust
GST
kts
5-day plot - Wave Height
WVHT
ft
5-day plot - Dominant Wave Period
DPD
sec
5-day plot - Average Wave Period
APD
sec
5-day plot - Mean Wave Direction
MWD
 
5-day plot - Atmospheric Pressure
PRES
in
5-day plot - Pressure Tendency
PTDY
in
5-day plot - Air Temperature
ATMP
°F
5-day plot - Water Temperature
WTMP
°F
5-day plot - Dew Point
DEWP
°F
5-day plot - Salinity
SAL
psu
5-day plot - Visibility
VIS
nmi
5-day plot - Tide (above MLLW)
TIDE
ft
2024-05-21 11:24 pm S 4 11------ 45.5- 39.9---
2024-05-21 11:14 pmSSE 4 12------ 45.7- 40.1---
2024-05-21 11:04 pm SE 4 11------ 45.7- 40.3---
2024-05-21 10:54 pm SE 5 12------ 45.9- 40.5---
2024-05-21 10:44 pm SE 5 12------ 46.2- 40.6---
2024-05-21 10:34 pmESE 4 12------ 46.2- 40.6---
2024-05-21 10:24 pmESE 4 10------ 46.6- 40.8---
2024-05-21 10:14 pmESE 3 10------ 46.6- 41.0---
2024-05-21 10:04 pmESE 3 8------ 46.9- 41.4---
2024-05-21 09:54 pmESE 3 9------ 47.1- 41.4---
2024-05-21 09:44 pmESE 4 10------ 47.3- 41.7---
2024-05-21 09:34 pmESE 4 10------ 47.8- 41.7---
2024-05-21 09:24 pmESE 3 10------ 47.8- 41.9---
2024-05-21 09:14 pm E 2 6------ 47.8- 42.4---
2024-05-21 09:04 pmESE 2 5------ 48.2- 43.0---
2024-05-21 08:54 pmESE 2 6------ 48.4- 42.8---
2024-05-21 08:44 pm E 2 6------ 48.6- 42.8---
2024-05-21 08:34 pm E 3 8------ 49.1- 43.0---
2024-05-21 08:24 pm E 3 8------ 49.3- 43.0---
2024-05-21 08:14 pmESE 4 11------ 49.3- 43.0---
2024-05-21 08:04 pm E 3 8------ 49.5- 43.3---
2024-05-21 07:54 pm E 3 9------ 49.8- 43.3---
2024-05-21 07:44 pmESE 2 7------ 49.5- 43.7---
2024-05-21 07:34 pmESE 2 9------ 49.3- 44.1---
2024-05-21 07:24 pmNNE 3 7------ 49.8- 43.9---
2024-05-21 07:15 pm NE 2 7------ 50.4- 44.2---
2024-05-21 07:04 pm N 2 6------ 50.2- 44.1---
2024-05-21 06:54 pmENE 3 10------ 50.4- 44.1---
2024-05-21 06:44 pmNNE 2 7------ 51.4- 44.6---
2024-05-21 06:34 pm SE 1 7------ 51.4- 44.4---
2024-05-21 06:24 pm E 3 10------ 50.7- 44.1---
2024-05-21 06:14 pm E 4 10------ 50.7- 44.1---
2024-05-21 06:04 pm E 4 9------ 51.4- 44.2---
2024-05-21 05:54 pmESE 2 7------ 52.2- 44.8---
2024-05-21 05:45 pm E 2 9------ 51.6- 44.8---
2024-05-21 05:34 pm SE 2 7------ 51.4- 44.8---
2024-05-21 05:24 pm S 2 11------ 50.9- 44.6---
2024-05-21 05:14 pmSSE 2 8------ 50.5- 44.8---
2024-05-21 05:04 pm S 2 6------ 49.8- 44.6---
2024-05-21 04:54 pm SE 2 10------ 49.5- 44.8---
2024-05-21 04:44 pm SE 2 6------ 49.5- 44.8---
2024-05-21 04:34 pmESE 3 9------ 49.3- 44.6---
2024-05-21 04:24 pmESE 3 9------ 48.9- 44.6---
2024-05-21 04:14 pm W 3 6------ 48.9- 44.4---
2024-05-21 03:54 pm NW 2 4------ 49.6- 45.0---
2024-05-21 03:44 pm NE 2 6------ 50.0- 45.1---
2024-05-21 03:34 pmNNE 2 6------ 49.5- 45.1---
2024-05-21 03:24 pm N 2 6------ 49.1- 44.8---
2024-05-21 03:14 pmWNW 2 5------ 49.1- 44.8---
2024-05-21 03:04 pm N 2 5------ 49.3- 44.8---
2024-05-21 02:54 pmNNE 2 7------ 49.3- 44.8---
2024-05-21 02:44 pm E 3 13------ 48.9- 44.6---
2024-05-21 02:34 pmESE 4 14------ 48.6- 44.4---
2024-05-21 02:24 pmESE 4 14------ 48.2- 44.6---
2024-05-21 02:14 pm E 3 11------ 48.6- 44.4---
2024-05-21 02:04 pmESE 5 14------ 48.4- 44.2---
2024-05-21 01:54 pmESE 3 10------ 48.4- 44.4---
2024-05-21 01:44 pm E 2 7------ 48.4- 44.4---
2024-05-21 01:34 pm E 2 9------ 47.8- 44.6---
2024-05-21 01:24 pmESE 3 10------ 47.5- 44.4---
2024-05-21 01:14 pm SE 2 6------ 46.8- 44.4---
2024-05-21 01:04 pm SE 2 7------ 45.9- 43.7---
2024-05-21 12:54 pmESE 2 7------ 45.7- 43.7---
2024-05-21 12:44 pmESE 3 10------ 45.3- 43.3---
2024-05-21 12:34 pmESE 4 9------ 45.3- 43.5---
2024-05-21 12:24 pmESE 5 11------ 45.3- 43.5---
2024-05-21 12:14 pmESE 5 11------ 45.3- 43.5---
2024-05-21 12:04 pmESE 5 13------ 45.3- 43.7---
2024-05-21 11:54 amESE 7 14------ 45.3- 43.5---
2024-05-21 11:44 amESE 4 12------ 45.3- 43.7---
2024-05-21 11:34 am E 2 9------ 45.3- 43.7---
2024-05-21 11:24 am SE 3 10------ 45.1- 43.3---
2024-05-21 11:14 am SE 3 9------ 45.0- 43.3---
2024-05-21 11:04 amSSE 3 10------ 44.6- 43.3---
2024-05-21 10:54 amESE 2 10------ 44.1- 43.2---
2024-05-21 10:44 am S 3 8------ 43.5- 42.8---
2024-05-21 10:34 am SW 3 9------ 43.3- 42.8---
2024-05-21 10:24 am SE 2 3------ 43.3- 42.8---
2024-05-21 10:14 am N 1 3------ 43.3- 42.8---
2024-05-21 10:04 am SW 1 3------ 43.3- 42.8---
2024-05-21 09:54 amSSE 1 3------ 43.3- 42.8---
2024-05-21 09:44 amESE 2 5------ 43.3- 42.8---
2024-05-21 09:34 amESE 3 7------ 43.2- 42.6---
2024-05-21 09:24 am E 2 7------ 43.2- 42.6---
2024-05-21 09:14 am E 2 6------ 43.0- 42.8---
2024-05-21 09:04 am SW 2 5------ 42.8- 42.6---
2024-05-21 08:54 amSSE 2 8------ 42.8- 42.6---
2024-05-21 08:45 am S 2 4------ 42.6- 42.4---
2024-05-21 08:35 am S 2 5------ 42.6- 42.4---
2024-05-21 08:24 am S 3 7------ 42.6- 42.4---
2024-05-21 08:14 amSSE 3 13------ 42.6- 42.4---
2024-05-21 08:04 amESE 3 9------ 42.6- 42.4---
2024-05-21 07:54 amESE 3 8------ 42.6- 42.4---
2024-05-21 07:44 am E 4 11------ 42.6- 42.3---
2024-05-21 07:34 am E 3 9------ 42.6- 42.1---
2024-05-21 07:24 am E 3 8------ 42.6- 42.1---
2024-05-21 07:14 am E 4 10------ 42.6- 42.1---
2024-05-21 07:04 am E 4 10------ 42.4- 41.9---
2024-05-21 06:54 am E 4 10------ 42.4- 41.9---
2024-05-21 06:44 amSSE 2 6------ 42.6- 42.1---
2024-05-21 06:34 amWSW 2 6------ 42.6- 41.9---
2024-05-21 06:24 amESE 2 7------ 42.6- 41.7---
2024-05-21 06:14 am E 1 3------ 42.4- 41.4---
2024-05-21 06:04 am E 2 3------ 42.4- 41.4---
2024-05-21 05:54 am E 1 3------ 42.6- 41.5---
2024-05-21 05:44 am- 0 2------ 42.6- 41.5---
2024-05-21 05:34 am- 0 2------ 42.4- 41.4---
2024-05-21 05:24 am NW 1 3------ 42.3- 41.2---
2024-05-21 05:14 am- 0 3------ 42.3- 41.2---
2024-05-21 05:04 am- 0 2------ 42.3- 41.5---
2024-05-21 04:54 am- 0 3------ 42.1- 41.4---
2024-05-21 04:44 am NW 1 3------ 42.1- 41.4---
2024-05-21 04:34 amWNW 1 4------ 42.1- 41.2---
2024-05-21 04:24 amWNW 1 4------ 42.1- 41.0---
2024-05-21 04:14 amNNW 1 4------ 42.1- 41.0---
2024-05-21 04:04 am N 1 3------ 42.1- 40.8---
2024-05-21 03:54 amENE 1 6------ 42.1- 40.8---
2024-05-21 03:44 am E 1 5------ 42.3- 41.0---
2024-05-21 03:34 am- 0 4------ 42.1- 40.8---
2024-05-21 03:24 amENE 1 4------ 41.9- 40.6---
2024-05-21 03:14 am- 0 3------ 41.9- 40.6---
2024-05-21 03:04 am- 0 4------ 41.7- 40.5---
2024-05-21 02:54 am NW 1 3------ 41.7- 40.5---
2024-05-21 02:44 amNNW 1 3------ 41.7- 40.5---
2024-05-21 02:34 amNNW 1 4------ 41.7- 40.5---
2024-05-21 02:24 amNNW 1 3------ 41.7- 40.1---
2024-05-21 02:14 amNNW 1 3------ 41.9- 39.9---
2024-05-21 02:04 am NE 1 5------ 41.7- 39.2---
2024-05-21 01:54 am N 1 4------ 41.5- 39.4---
2024-05-21 01:44 am N 1 4------ 41.5- 39.7---
2024-05-21 01:24 amNNE 1 3------ 41.4- 39.2---
2024-05-21 01:14 amENE 1 4------ 41.4- 39.4---
2024-05-21 01:04 am NE 2 5------ 41.4- 39.0---
2024-05-21 12:54 amENE 2 7------ 41.4- 39.2---
2024-05-21 12:44 am E 2 6------ 41.4- 39.0---
2024-05-21 12:24 amENE 2 7------ 41.2- 38.8---
2024-05-21 12:15 amENE 2 6------ 41.2- 38.8---
2024-05-21 12:04 amENE 2 5------ 41.2- 38.7---
2024-05-20 11:54 pm NE 2 7------ 41.4- 38.5---
2024-05-20 11:44 pm NE 2 6------ 41.4- 38.5---
2024-05-20 11:34 pm NE 2 5------ 41.5- 38.3---
2024-05-20 11:24 pm NE 2 6------ 41.7- 38.5---
2024-05-20 11:14 pm NE 2 5------ 41.7- 38.3---
2024-05-20 11:04 pm NE 2 5------ 41.9- 38.1---
2024-05-20 10:54 pm NE 2 5------ 41.9- 38.1---